Time;durP1;ratioP1;P1;durP2;ratioP2;P2;SDS_P1;SDS_P2;PMS_P1;PMS_P2;Temp;Humidity;BMP_temperature;BMP_pressure;BME280_temperature;BME280_humidity;BME280_pressure;Samples;Min_cycle;Max_cycle;Signal;HPM_P1;HPM_P2
2023/06/15 00:00:00;;;;;;;5.90;3.90;;;;;;;17.57;46.09;96610.06;4946352;29;20047;-86
2023/06/15 00:02:34;;;;;;;5.28;4.03;;;;;;;17.57;45.82;96612.69;4946961;29;20043;-87
2023/06/15 00:05:12;;;;;;;4.70;3.65;;;;;;;17.58;46.08;96609.03;4946658;29;20059;-86
2023/06/15 00:07:40;;;;;;;7.32;4.30;;;;;;;17.61;45.96;96605.16;4946102;29;20456;-89
2023/06/15 00:10:13;;;;;;;7.70;4.70;;;;;;;17.59;46.19;96613.28;4948452;29;20075;-87
2023/06/15 00:12:44;;;;;;;4.78;4.20;;;;;;;17.54;46.38;96615.78;4948246;29;20065;-86
2023/06/15 00:15:20;;;;;;;5.18;4.07;;;;;;;17.50;46.58;96609.34;4948812;29;20051;-86
2023/06/15 00:17:56;;;;;;;5.30;4.20;;;;;;;17.40;46.50;96611.72;4948039;29;20059;-86
2023/06/15 00:20:28;;;;;;;5.43;4.60;;;;;;;17.30;46.96;96610.44;4948750;29;20059;-87
2023/06/15 00:22:57;;;;;;;4.13;3.72;;;;;;;17.26;47.16;96611.91;4948907;29;20044;-87
2023/06/15 00:25:25;;;;;;;5.47;3.60;;;;;;;17.28;46.83;96607.22;4949714;29;20110;-89
2023/06/15 00:27:58;;;;;;;4.57;3.85;;;;;;;17.26;47.13;96611.91;4949653;29;20055;-87
2023/06/15 00:30:44;;;;;;;4.28;3.88;;;;;;;17.23;46.94;96609.72;4950022;29;20056;-87
2023/06/15 00:33:13;;;;;;;4.32;3.35;;;;;;;17.23;47.28;96604.47;4952147;29;20051;-88
2023/06/15 00:35:48;;;;;;;4.93;4.00;;;;;;;17.24;46.78;96608.69;4950713;29;20062;-86
2023/06/15 00:38:19;;;;;;;5.95;4.97;;;;;;;17.19;46.88;96608.56;4950962;29;20055;-86
2023/06/15 00:40:49;;;;;;;4.63;4.15;;;;;;;17.15;47.26;96611.88;4950422;29;20056;-87
2023/06/15 00:43:26;;;;;;;4.93;3.42;;;;;;;17.20;47.93;96615.44;4951066;29;20059;-86
2023/06/15 00:45:58;;;;;;;7.38;4.38;;;;;;;17.19;47.23;96603.28;4948872;29;20055;-87
2023/06/15 00:48:32;;;;;;;7.65;3.70;;;;;;;17.18;47.48;96606.94;4950777;29;20052;-85
2023/06/15 00:51:09;;;;;;;4.88;4.40;;;;;;;17.23;46.96;96609.72;4957508;29;20051;-89
2023/06/15 00:53:45;;;;;;;4.10;3.63;;;;;;;17.23;47.17;96615.00;4958740;29;20074;-88
2023/06/15 00:56:29;;;;;;;3.95;3.58;;;;;;;17.24;47.51;96613.97;4957918;29;20140;-89
2023/06/15 00:59:04;;;;;;;4.80;4.07;;;;;;;17.26;46.91;96616.38;4955813;29;20047;-91
2023/06/15 01:01:37;;;;;;;5.53;4.00;;;;;;;17.24;47.12;96611.31;4953331;29;20075;-90
2023/06/15 01:04:14;;;;;;;3.58;3.28;;;;;;;17.23;47.07;96612.38;4952504;29;20083;-91
2023/06/15 01:06:51;;;;;;;6.95;3.92;;;;;;;17.26;47.29;96614.53;4952289;29;20059;-90
2023/06/15 01:09:30;;;;;;;6.05;4.13;;;;;;;17.21;47.14;96608.34;4951794;29;20048;-90
2023/06/15 01:12:07;;;;;;;3.92;3.50;;;;;;;17.19;47.37;96613.84;4952018;29;20055;-91
2023/06/15 01:14:42;;;;;;;3.78;3.42;;;;;;;17.20;47.62;96615.44;4952664;29;20457;-90
2023/06/15 01:17:15;;;;;;;5.22;3.60;;;;;;;17.22;47.47;96618.66;4951889;29;20052;-89
2023/06/15 01:19:57;;;;;;;3.88;3.50;;;;;;;17.24;46.87;96611.31;4952150;29;20047;-90
2023/06/15 01:22:36;;;;;;;4.82;3.80;;;;;;;17.22;46.97;96613.38;4952242;29;20063;-89
2023/06/15 01:25:12;;;;;;;4.80;3.85;;;;;;;17.21;46.86;96613.63;4955385;29;20039;-88
2023/06/15 01:27:49;;;;;;;5.95;3.60;;;;;;;17.17;47.05;96609.81;4959700;28;20044;-88
2023/06/15 01:30:18;;;;;;;4.75;4.18;;;;;;;17.17;47.18;96602.72;4959568;28;20055;-88
2023/06/15 01:32:50;;;;;;;6.70;4.00;;;;;;;17.19;47.05;96608.56;4958121;28;20068;-91
2023/06/15 01:35:25;;;;;;;5.03;3.22;;;;;;;17.22;47.08;96605.47;4955763;29;20047;-90
2023/06/15 01:38:04;;;;;;;4.55;4.15;;;;;;;17.23;46.73;96609.72;4955420;29;20080;-91
2023/06/15 01:40:43;;;;;;;8.77;4.43;;;;;;;17.20;46.80;96604.88;4955116;29;20120;-89
2023/06/15 01:43:16;;;;;;;6.60;4.30;;;;;;;17.12;47.04;96602.59;4954182;29;20055;-89
2023/06/15 01:45:47;;;;;;;5.03;4.20;;;;;;;17.04;47.20;96608.16;4954069;29;20063;-89
2023/06/15 01:48:20;;;;;;;4.68;4.00;;;;;;;16.97;47.57;96604.81;4954524;29;20071;-89
2023/06/15 01:50:55;;;;;;;4.43;4.03;;;;;;;16.86;47.75;96607.16;4954369;29;20035;-88
2023/06/15 01:53:27;;;;;;;6.03;4.18;;;;;;;16.77;47.99;96616.34;4955133;29;20059;-89
2023/06/15 01:55:59;;;;;;;5.57;4.60;;;;;;;16.69;48.43;96606.13;4955448;29;20571;-92
2023/06/15 01:58:30;;;;;;;6.40;4.00;;;;;;;16.61;48.58;96601.13;4955726;29;20083;-91
2023/06/15 02:03:53;;;;;;;4.32;3.92;;;;;;;16.48;48.80;96608.13;4953744;29;20048;-89
2023/06/15 02:06:24;;;;;;;6.95;4.57;;;;;;;16.41;49.15;96601.34;4957025;29;20043;-91
2023/06/15 02:09:03;;;;;;;6.23;4.70;;;;;;;16.34;49.10;96601.41;4957450;29;20038;-90
2023/06/15 02:11:31;;;;;;;6.20;4.60;;;;;;;16.30;49.69;96600.25;4955166;29;20087;-91
2023/06/15 02:14:09;;;;;;;5.13;4.72;;;;;;;16.27;49.54;96600.69;4954892;29;20040;-90
2023/06/15 02:16:39;;;;;;;7.57;4.72;;;;;;;16.23;49.43;96604.78;4947066;29;20473;-90
2023/06/15 02:19:09;;;;;;;6.43;4.75;;;;;;;16.19;49.64;96608.84;4954531;29;20044;-90
2023/06/15 02:21:40;;;;;;;5.88;4.70;;;;;;;16.15;49.82;96602.41;4954448;29;20064;-90
2023/06/15 02:24:14;;;;;;;5.90;4.68;;;;;;;16.15;49.80;96612.94;4951921;29;20528;-86
2023/06/15 02:26:46;;;;;;;5.80;4.65;;;;;;;16.16;49.96;96610.09;4952171;29;20051;-89
2023/06/15 02:29:19;;;;;;;7.85;5.10;;;;;;;16.15;49.75;96616.38;4953345;29;20101;-88
2023/06/15 02:31:50;;;;;;;5.93;4.30;;;;;;;16.14;50.12;96621.88;4957942;29;20035;-89
2023/06/15 02:34:26;;;;;;;4.78;4.35;;;;;;;16.14;50.14;96621.88;4959728;29;20092;-90
2023/06/15 02:37:02;;;;;;;4.68;4.22;;;;;;;16.14;50.07;96616.59;4959222;29;20051;-88
2023/06/15 02:39:30;;;;;;;5.72;4.95;;;;;;;16.14;50.13;96611.34;4960627;29;20054;-89
2023/06/15 02:42:01;;;;;;;8.05;5.35;;;;;;;16.10;50.34;96610.97;4960943;29;20082;-88
2023/06/15 02:44:44;;;;;;;6.80;4.97;;;;;;;16.04;50.62;96617.06;4961924;28;20063;-91
2023/06/15 02:47:15;;;;;;;5.22;4.70;;;;;;;15.99;50.54;96614.28;4961661;28;20071;-89
2023/06/15 02:49:44;;;;;;;7.60;5.53;;;;;;;15.90;50.86;96607.69;4960135;29;20032;-89
2023/06/15 02:52:18;;;;;;;9.88;6.60;;;;;;;15.79;51.32;96611.84;4960063;29;20072;-88
2023/06/15 02:54:53;;;;;;;7.70;6.88;;;;;;;15.68;51.43;96618.56;4959904;29;20048;-89
2023/06/15 02:57:27;;;;;;;8.52;6.68;;;;;;;15.58;51.82;96618.22;4960417;29;20083;-88
2023/06/15 03:00:12;;;;;;;6.80;6.10;;;;;;;15.50;52.09;96608.75;4959857;29;20151;-87
2023/06/15 03:02:43;;;;;;;10.00;7.15;;;;;;;15.43;52.19;96615.88;4960233;29;20133;-90
2023/06/15 03:05:19;;;;;;;9.15;7.05;;;;;;;15.40;52.16;96619.72;4960668;29;20035;-88
2023/06/15 03:07:47;;;;;;;7.63;6.47;;;;;;;15.40;52.60;96621.56;4959633;29;20056;-88
2023/06/15 03:10:20;;;;;;;10.68;6.28;;;;;;;15.40;52.38;96611.84;4959134;28;20062;-88
2023/06/15 03:12:54;;;;;;;8.52;6.72;;;;;;;15.36;52.74;96615.13;4960473;28;20047;-91
2023/06/15 03:15:32;;;;;;;8.20;7.22;;;;;;;15.29;52.84;96624.88;4961179;28;20083;-92
2023/06/15 03:18:03;;;;;;;10.85;6.85;;;;;;;15.20;52.81;96624.31;4961338;29;20049;-88
2023/06/15 03:20:34;;;;;;;8.02;7.05;;;;;;;15.11;53.22;96636.88;4961691;28;20035;-90
2023/06/15 03:23:10;;;;;;;9.85;6.25;;;;;;;15.03;53.34;96637.13;4961535;28;20091;-89
2023/06/15 03:25:41;;;;;;;6.43;5.70;;;;;;;14.99;53.78;96651.66;4961419;28;20055;-90
2023/06/15 03:28:15;;;;;;;6.03;5.40;;;;;;;14.95;54.02;96646.03;4960965;28;20046;-89
2023/06/15 03:30:52;;;;;;;6.70;5.32;;;;;;;14.93;54.16;96647.25;4960648;28;20078;-91
2023/06/15 03:33:22;;;;;;;7.07;5.80;;;;;;;14.87;53.65;96648.91;4960761;28;20083;-87
2023/06/15 03:36:03;;;;;;;6.13;4.75;;;;;;;14.78;54.16;96648.31;4960850;28;20043;-88
2023/06/15 03:38:31;;;;;;;5.10;4.60;;;;;;;14.71;54.19;96644.88;4959879;29;20050;-87
2023/06/15 03:41:02;;;;;;;7.68;5.45;;;;;;;14.66;54.40;96652.59;4960101;29;20100;-89
2023/06/15 03:43:32;;;;;;;6.03;5.22;;;;;;;14.66;54.62;96665.72;4957404;29;20051;-90
2023/06/15 03:46:08;;;;;;;7.50;5.65;;;;;;;14.63;54.64;96658.25;4956159;29;20071;-87
2023/06/15 03:48:41;;;;;;;5.28;4.78;;;;;;;14.59;55.06;96663.09;4957884;29;20079;-89
2023/06/15 03:51:14;;;;;;;7.03;5.50;;;;;;;14.57;54.88;96670.38;4959652;29;20084;-88
2023/06/15 03:53:59;;;;;;;6.20;5.60;;;;;;;14.54;55.14;96675.19;4958615;29;20043;-88
2023/06/15 03:56:35;;;;;;;5.75;5.15;;;;;;;14.52;55.37;96674.59;4958672;29;20062;-90
2023/06/15 03:59:06;;;;;;;7.20;5.50;;;;;;;14.48;55.45;96674.22;4958093;29;20071;-92
2023/06/15 04:01:37;;;;;;;6.95;5.35;;;;;;;14.46;55.69;96680.69;4957160;29;20055;-89
2023/06/15 04:04:12;;;;;;;5.20;4.70;;;;;;;14.42;55.41;96678.44;4957589;29;20061;-89
2023/06/15 04:06:45;;;;;;;10.02;5.68;;;;;;;14.40;55.62;96680.47;4958490;29;20062;-88
2023/06/15 04:09:17;;;;;;;7.22;5.53;;;;;;;14.43;55.76;96677.44;4958964;28;20075;-89
2023/06/15 04:11:46;;;;;;;5.80;5.25;;;;;;;14.52;55.81;96682.47;4958988;28;20057;-88
2023/06/15 04:14:19;;;;;;;9.52;6.13;;;;;;;14.60;55.40;96682.28;4959958;28;20054;-89
2023/06/15 04:16:58;;;;;;;6.82;5.10;;;;;;;14.69;55.64;96683.66;4958111;28;20058;-89
2023/06/15 04:19:35;;;;;;;5.50;5.00;;;;;;;14.72;54.92;96691.16;4959120;29;20078;-89
2023/06/15 04:22:04;;;;;;;7.80;5.53;;;;;;;14.69;55.09;96688.13;4959242;28;20048;-88
2023/06/15 04:24:33;;;;;;;8.02;5.35;;;;;;;14.66;55.12;96691.16;4960106;28;20051;-89
2023/06/15 04:27:05;;;;;;;9.45;5.40;;;;;;;14.63;55.41;96695.03;4959408;28;20052;-89
2023/06/15 04:29:45;;;;;;;8.50;5.38;;;;;;;14.62;55.66;96698.63;4959782;28;20055;-91
2023/06/15 04:32:30;;;;;;;7.85;5.70;;;;;;;14.59;56.01;96699.06;4958073;29;20062;-91
2023/06/15 04:35:06;;;;;;;7.53;5.45;;;;;;;14.57;55.83;96695.81;4959234;28;20042;-90
2023/06/15 04:37:39;;;;;;;9.85;5.72;;;;;;;14.55;55.72;96696.03;4948181;28;20058;-78
2023/06/15 04:40:09;;;;;;;5.63;5.13;;;;;;;14.54;55.94;96711.94;4938411;29;20497;-77
2023/06/15 04:42:40;;;;;;;8.18;5.68;;;;;;;14.54;55.99;96706.69;4942265;29;20456;-80
2023/06/15 04:45:09;;;;;;;8.75;5.80;;;;;;;14.56;56.05;96702.06;4936773;29;20516;-76
2023/06/15 04:47:41;;;;;;;6.38;5.78;;;;;;;14.57;56.13;96711.59;4922502;29;20127;-80
2023/06/15 04:50:13;;;;;;;10.65;5.72;;;;;;;14.59;56.21;96709.56;4919148;29;20066;-77
2023/06/15 04:52:41;;;;;;;8.27;6.30;;;;;;;14.61;55.89;96712.78;4918191;29;20056;-77
2023/06/15 04:55:10;;;;;;;8.20;5.57;;;;;;;14.61;55.80;96702.28;4928928;29;20130;-79
2023/06/15 04:57:38;;;;;;;6.30;5.70;;;;;;;14.63;55.96;96710.78;4939316;29;20055;-80
2023/06/15 05:00:08;;;;;;;9.00;4.82;;;;;;;14.71;56.24;96713.16;4938011;29;20080;-77
2023/06/15 05:02:37;;;;;;;6.85;5.18;;;;;;;14.88;55.81;96708.28;4938459;29;20539;-81
2023/06/15 05:05:06;;;;;;;10.70;7.00;;;;;;;14.98;55.37;96710.50;4922288;29;20055;-84
2023/06/15 05:07:34;;;;;;;8.52;6.45;;;;;;;15.01;55.19;96712.69;4927949;29;20110;-79
2023/06/15 05:10:03;;;;;;;6.38;4.97;;;;;;;15.11;55.51;96715.69;4936886;29;20051;-77
2023/06/15 05:12:32;;;;;;;13.70;9.85;;;;;;;15.24;55.07;96720.91;4933190;29;20111;-78
2023/06/15 05:14:59;;;;;;;7.63;6.85;;;;;;;15.29;54.80;96715.03;4936766;29;20409;-79
2023/06/15 05:17:27;;;;;;;9.70;7.63;;;;;;;15.33;54.55;96713.59;4936482;29;20047;-79
2023/06/15 05:19:55;;;;;;;12.55;9.68;;;;;;;15.41;55.09;96717.78;4933215;29;20048;-77
2023/06/15 05:22:23;;;;;;;7.70;6.75;;;;;;;15.50;54.93;96715.72;4917858;29;20477;-78
2023/06/15 05:24:51;;;;;;;8.98;7.07;;;;;;;15.54;54.59;96717.72;4924634;29;20045;-78
2023/06/15 05:27:19;;;;;;;8.55;7.35;;;;;;;15.59;54.42;96728.44;4920034;29;20048;-80
2023/06/15 05:29:47;;;;;;;8.05;6.78;;;;;;;15.58;54.30;96723.38;4933260;29;20052;-89
2023/06/15 05:32:16;;;;;;;6.68;5.70;;;;;;;15.61;54.78;96726.41;4939338;29;20095;-88
2023/06/15 05:34:50;;;;;;;8.18;5.82;;;;;;;15.72;54.29;96729.41;4940964;29;20077;-88
2023/06/15 05:37:19;;;;;;;9.23;6.72;;;;;;;15.78;54.00;96729.34;4945354;29;20048;-89
2023/06/15 05:39:50;;;;;;;9.50;6.85;;;;;;;15.79;54.14;96730.19;4948451;29;20060;-86
2023/06/15 05:42:18;;;;;;;8.85;6.28;;;;;;;15.84;54.23;96732.97;4952886;29;20047;-86
2023/06/15 05:44:50;;;;;;;13.00;6.93;;;;;;;15.92;53.88;96732.72;4954253;29;20112;-88
2023/06/15 05:47:20;;;;;;;8.05;7.25;;;;;;;15.97;53.56;96738.16;4944353;29;20079;-86
2023/06/15 05:49:48;;;;;;;8.80;6.50;;;;;;;15.99;53.70;96736.13;4945862;29;20411;-87
2023/06/15 05:52:17;;;;;;;7.60;6.50;;;;;;;16.01;53.57;96735.91;4945168;29;20055;-84
2023/06/15 05:54:45;;;;;;;8.13;6.18;;;;;;;16.04;53.04;96738.91;4943986;29;20056;-88
2023/06/15 05:57:15;;;;;;;10.40;7.22;;;;;;;16.08;53.40;96749.03;4940884;29;20460;-85
2023/06/15 05:59:45;;;;;;;8.00;6.85;;;;;;;16.11;53.23;96743.31;4943004;29;20067;-85
2023/06/15 06:02:14;;;;;;;8.07;6.78;;;;;;;16.16;53.11;96749.56;4926144;29;20074;-86
2023/06/15 06:04:42;;;;;;;9.63;6.35;;;;;;;16.20;53.17;96752.56;4942286;29;20051;-83
2023/06/15 06:07:10;;;;;;;8.52;6.13;;;;;;;16.24;52.87;96748.50;4939730;29;20048;-85
2023/06/15 06:09:41;;;;;;;8.05;5.70;;;;;;;16.31;52.88;96751.06;4934649;29;20048;-83
2023/06/15 06:12:10;;;;;;;10.05;7.00;;;;;;;16.37;52.83;96756.28;4942513;29;20050;-86
2023/06/15 06:14:40;;;;;;;6.93;6.20;;;;;;;16.44;52.69;96751.81;4937438;29;20119;-86
2023/06/15 06:17:08;;;;;;;8.18;6.18;;;;;;;16.53;52.43;96754.13;4946707;29;20044;-88
2023/06/15 06:19:36;;;;;;;7.35;5.60;;;;;;;16.59;52.60;96756.72;4942935;29;20058;-87
2023/06/15 06:22:04;;;;;;;6.50;5.18;;;;;;;16.69;52.33;96750.97;4944060;29;20111;-88
2023/06/15 06:24:32;;;;;;;6.22;5.60;;;;;;;16.77;52.22;96750.69;4942891;29;20079;-84
2023/06/15 06:27:00;;;;;;;7.40;5.40;;;;;;;16.85;52.04;96750.44;4942456;29;20146;-89
2023/06/15 06:29:27;;;;;;;6.07;5.45;;;;;;;16.94;51.40;96758.06;4943647;29;20098;-87
2023/06/15 06:31:56;;;;;;;6.55;5.80;;;;;;;17.00;51.18;96757.19;4944420;29;20130;-87
2023/06/15 06:34:24;;;;;;;4.40;4.03;;;;;;;17.08;51.34;96754.28;4943474;29;20088;-89
2023/06/15 06:36:52;;;;;;;6.00;5.05;;;;;;;17.19;51.29;96752.75;4942377;29;20420;-90
2023/06/15 06:39:22;;;;;;;5.10;4.63;;;;;;;17.27;51.03;96747.97;4943649;29;20054;-88
2023/06/15 06:41:51;;;;;;;5.70;4.80;;;;;;;17.38;50.62;96754.34;4933885;29;20059;-88
2023/06/15 06:44:19;;;;;;;6.10;5.07;;;;;;;17.49;50.48;96755.41;4943092;29;20524;-84
2023/06/15 06:46:47;;;;;;;7.40;4.60;;;;;;;17.58;50.17;96759.38;4937296;29;20048;-85
2023/06/15 06:49:16;;;;;;;5.57;4.82;;;;;;;17.67;50.03;96758.03;4944940;29;20052;-86
2023/06/15 06:51:44;;;;;;;5.45;4.95;;;;;;;17.78;49.73;96758.31;4944738;29;20048;-84
2023/06/15 06:54:12;;;;;;;7.88;4.65;;;;;;;17.88;49.78;96761.25;4945568;29;20048;-86
2023/06/15 06:56:40;;;;;;;6.25;5.18;;;;;;;17.99;49.80;96755.19;4942350;29;20047;-87
2023/06/15 06:59:08;;;;;;;7.03;5.00;;;;;;;18.10;48.96;96754.44;4944461;29;20043;-84
2023/06/15 07:01:35;;;;;;;6.25;4.65;;;;;;;18.21;49.20;96760.75;4940121;29;20051;-86
2023/06/15 07:04:03;;;;;;;6.32;4.47;;;;;;;18.31;49.28;96762.88;4944760;29;20075;-84
2023/06/15 07:06:33;;;;;;;8.48;5.03;;;;;;;18.41;48.67;96757.84;4942561;29;20050;-85
2023/06/15 07:09:01;;;;;;;8.68;4.55;;;;;;;18.52;48.14;96759.69;4930260;29;20082;-86
2023/06/15 07:11:28;;;;;;;5.50;4.68;;;;;;;18.61;47.96;96757.50;4943587;29;20043;-85
2023/06/15 07:13:56;;;;;;;8.13;5.55;;;;;;;18.70;47.85;96756.13;4942558;29;20078;-85
2023/06/15 07:16:24;;;;;;;5.13;4.43;;;;;;;18.79;47.80;96759.28;4941661;29;20539;-87
2023/06/15 07:18:52;;;;;;;7.78;4.57;;;;;;;18.89;47.55;96753.38;4942348;29;20062;-83
2023/06/15 07:21:19;;;;;;;6.18;4.13;;;;;;;18.99;47.27;96752.81;4948682;28;20154;-87
2023/06/15 07:23:49;;;;;;;6.47;4.50;;;;;;;19.08;47.06;96754.06;4941644;29;20052;-86
2023/06/15 07:26:21;;;;;;;6.13;4.75;;;;;;;19.18;46.96;96750.84;4945679;29;20060;-89
2023/06/15 07:28:50;;;;;;;6.25;4.95;;;;;;;19.28;47.22;96748.41;4943800;29;20413;-88
2023/06/15 07:31:19;;;;;;;4.30;3.90;;;;;;;19.41;47.31;96755.28;4943667;29;20059;-85
2023/06/15 07:33:47;;;;;;;5.55;4.82;;;;;;;19.52;46.31;96757.09;4948026;29;20091;-86
2023/06/15 07:36:15;;;;;;;5.35;4.82;;;;;;;19.60;45.92;96748.78;4946293;29;20083;-89
2023/06/15 07:38:45;;;;;;;8.65;4.82;;;;;;;19.68;45.56;96759.00;4948779;29;20080;-88
2023/06/15 07:41:16;;;;;;;5.47;4.30;;;;;;;19.75;46.67;96761.53;4945768;29;20107;-85
2023/06/15 07:43:44;;;;;;;4.07;3.67;;;;;;;19.82;45.97;96756.09;4947889;29;20076;-83
2023/06/15 07:46:11;;;;;;;4.88;4.47;;;;;;;19.85;45.85;96756.41;4946432;29;20043;-84
2023/06/15 07:48:39;;;;;;;7.03;4.13;;;;;;;19.90;45.63;96759.19;4947132;29;20051;-88
2023/06/15 07:51:07;;;;;;;5.03;4.40;;;;;;;19.95;47.44;96756.59;4945542;29;20052;-86
2023/06/15 07:53:34;;;;;;;5.18;4.20;;;;;;;20.01;46.14;96746.94;4944612;29;20055;-88
2023/06/15 07:56:02;;;;;;;4.43;4.03;;;;;;;20.08;45.41;96755.50;4944265;29;20060;-85
2023/06/15 07:58:34;;;;;;;6.18;4.15;;;;;;;20.14;45.63;96751.91;4952798;28;20508;-90
2023/06/15 08:01:29;;;;;;;5.88;4.00;;;;;;;20.22;45.07;96750.72;4945996;29;20051;-89
2023/06/15 08:04:00;;;;;;;4.40;4.00;;;;;;;20.29;44.65;96754.03;4949359;29;20051;-88
2023/06/15 08:06:28;;;;;;;4.70;4.20;;;;;;;20.36;44.39;96751.22;4953856;28;20075;-89
2023/06/15 08:08:56;;;;;;;4.15;3.75;;;;;;;20.44;44.43;96752.66;4951006;29;20552;-90
2023/06/15 08:11:26;;;;;;;4.28;3.88;;;;;;;20.50;43.44;96754.34;4953274;28;20035;-89
2023/06/15 08:13:57;;;;;;;4.00;3.53;;;;;;;20.56;42.65;96746.22;4954478;29;20071;-89
2023/06/15 08:16:33;;;;;;;4.30;3.90;;;;;;;20.64;42.60;96741.59;4954485;29;20055;-90
2023/06/15 08:19:42;;;;;;;5.68;3.80;;;;;;;20.72;42.28;96739.34;4951744;28;20107;-90
2023/06/15 08:22:25;;;;;;;4.40;3.65;;;;;;;20.82;42.27;96744.00;4959576;28;20052;-92
2023/06/15 08:25:12;;;;;;;4.85;3.97;;;;;;;20.91;41.93;96742.53;4941520;28;20052;-88
2023/06/15 08:27:51;;;;;;;3.97;3.58;;;;;;;20.98;40.55;96739.69;4949972;28;20103;-87
2023/06/15 08:33:35;;;;;;;5.93;3.50;;;;;;;21.14;41.51;96746.84;4954585;29;20067;-89
2023/06/15 08:36:37;;;;;;;4.18;3.78;;;;;;;21.24;41.25;96751.44;4954944;28;20070;-88
2023/06/15 08:39:30;;;;;;;3.75;3.45;;;;;;;21.36;41.27;96746.84;4958847;29;20036;-89
2023/06/15 08:42:25;;;;;;;4.68;3.97;;;;;;;21.46;40.32;96748.03;4944104;28;20063;-89
2023/06/15 08:45:03;;;;;;;4.18;3.55;;;;;;;21.51;40.38;96748.88;4940437;29;20055;-90
2023/06/15 08:47:58;;;;;;;3.70;3.40;;;;;;;21.54;39.47;96750.25;4951579;28;20540;-89
2023/06/15 08:50:34;;;;;;;4.68;3.85;;;;;;;21.59;40.26;96753.75;4940682;29;20048;-89
2023/06/15 08:53:24;;;;;;;4.40;3.90;;;;;;;21.69;39.93;96747.78;4947950;28;20038;-88
2023/06/15 08:56:00;;;;;;;5.65;3.85;;;;;;;21.78;39.63;96743.63;4956313;28;20047;-89
2023/06/15 08:58:30;;;;;;;4.50;3.83;;;;;;;21.87;39.24;96743.19;4958207;28;20062;-88
2023/06/15 09:01:02;;;;;;;3.67;3.38;;;;;;;21.95;38.80;96743.53;4958710;28;20075;-87
2023/06/15 09:03:48;;;;;;;6.63;4.15;;;;;;;22.04;39.10;96743.88;4957495;28;20061;-87
2023/06/15 09:22:10;;;;;;;4.07;3.53;;;;;;;22.30;37.04;96744.13;4929651;29;20056;-88
2023/06/15 09:24:46;;;;;;;;;;;;;;;22.31;37.06;96743.88;4938371;29;20603;-86
2023/06/15 09:27:25;;;;;;;5.68;3.60;;;;;;;22.34;37.13;96742.56;4939593;29;19990;-89
2023/06/15 09:30:06;;;;;;;3.83;3.35;;;;;;;22.40;36.92;96736.25;4939101;29;20052;-88
2023/06/15 09:32:41;;;;;;;3.45;2.95;;;;;;;22.51;36.74;96739.78;4930815;29;20043;-89
2023/06/15 09:35:13;;;;;;;4.25;3.40;;;;;;;22.56;36.25;96739.81;4937254;29;20076;-86
2023/06/15 09:37:43;;;;;;;3.45;3.15;;;;;;;22.58;36.16;96738.50;4926721;29;20056;-87
2023/06/15 09:40:15;;;;;;;3.53;3.00;;;;;;;22.59;36.13;96736.66;4924279;29;20061;-88
2023/06/15 09:42:50;;;;;;;4.18;3.60;;;;;;;22.56;35.69;96740.59;4933281;29;20080;-87
2023/06/15 09:45:18;;;;;;;4.28;2.85;;;;;;;22.56;35.66;96743.25;4931892;29;20108;-87
2023/06/15 09:47:55;;;;;;;4.20;3.30;;;;;;;22.60;35.45;96747.03;4943514;29;20047;-87
2023/06/15 09:50:32;;;;;;;3.60;3.30;;;;;;;22.68;34.98;96739.66;4944726;29;20048;-88
2023/06/15 09:53:07;;;;;;;3.33;3.10;;;;;;;22.74;33.59;96744.75;4941357;29;20058;-87
2023/06/15 09:55:36;;;;;;;3.38;3.08;;;;;;;22.79;33.65;96736.00;4936693;29;20052;-88
2023/06/15 09:58:12;;;;;;;4.63;2.85;;;;;;;22.89;33.44;96743.22;4927893;29;20053;-88
2023/06/15 10:01:03;;;;;;;3.47;3.15;;;;;;;23.00;33.10;96737.75;4939081;29;20051;-89
2023/06/15 10:03:34;;;;;;;3.13;2.85;;;;;;;23.11;33.14;96737.78;4931885;29;20060;-87
2023/06/15 10:06:11;;;;;;;4.63;2.95;;;;;;;23.18;32.02;96733.06;4924779;29;20060;-88
2023/06/15 10:08:51;;;;;;;2.78;2.58;;;;;;;23.24;32.09;96734.66;4942909;29;20077;-87
2023/06/15 10:11:25;;;;;;;3.30;3.00;;;;;;;23.35;32.36;96735.50;4943884;29;20036;-87
2023/06/15 10:13:57;;;;;;;3.35;2.50;;;;;;;23.49;32.76;96733.16;4932902;29;20394;-79
2023/06/15 10:16:28;;;;;;;5.28;2.95;;;;;;;23.58;31.16;96731.59;4927827;29;20117;-84
2023/06/15 10:19:00;;;;;;;3.80;2.60;;;;;;;23.61;30.64;96733.72;4927818;29;20055;-84
2023/06/15 10:21:31;;;;;;;4.03;2.80;;;;;;;23.68;31.18;96728.97;4922081;29;20410;-79
2023/06/15 10:24:05;;;;;;;5.13;2.72;;;;;;;23.79;30.12;96725.31;4926217;29;20056;-80
2023/06/15 10:26:34;;;;;;;4.65;3.03;;;;;;;23.90;31.11;96730.63;4923319;29;20058;-82
2023/06/15 10:29:09;;;;;;;3.88;3.30;;;;;;;24.00;31.20;96731.44;4913618;29;20044;-78
2023/06/15 10:31:44;;;;;;;3.80;2.90;;;;;;;24.09;33.49;96731.72;4917022;29;20056;-82
2023/06/15 10:34:20;;;;;;;4.65;2.70;;;;;;;24.21;33.16;96731.50;4922762;29;20090;-79
2023/06/15 10:36:53;;;;;;;5.18;3.35;;;;;;;24.36;32.34;96736.00;4920670;29;20517;-79
2023/06/15 10:39:28;;;;;;;2.78;2.58;;;;;;;24.45;31.90;96735.22;4921121;29;20044;-79
2023/06/15 10:41:56;;;;;;;4.90;3.25;;;;;;;24.53;31.86;96733.09;4920347;29;20480;-77
2023/06/15 10:44:31;;;;;;;3.20;2.90;;;;;;;24.53;30.88;96728.56;4921588;29;20143;-81
2023/06/15 10:47:06;;;;;;;3.67;2.78;;;;;;;24.49;31.19;96732.03;4914317;29;20049;-78
2023/06/15 10:49:34;;;;;;;3.92;2.90;;;;;;;24.53;31.72;96738.44;4906830;29;20059;-77
2023/06/15 10:52:03;;;;;;;3.05;2.80;;;;;;;24.54;30.60;96734.72;4916748;29;20079;-77
2023/06/15 10:54:36;;;;;;;3.13;2.83;;;;;;;24.59;30.28;96732.81;4917860;29;20398;-79
2023/06/15 10:57:07;;;;;;;3.10;2.55;;;;;;;24.68;30.24;96743.75;4908443;29;20052;-78
2023/06/15 10:59:41;;;;;;;4.93;2.63;;;;;;;24.76;29.34;96743.22;4919770;29;20107;-78
2023/06/15 11:02:42;;;;;;;3.35;2.50;;;;;;;24.79;28.69;96740.00;4920299;29;20067;-82
2023/06/15 11:05:12;;;;;;;3.78;3.03;;;;;;;24.79;29.74;96731.19;4908225;29;20043;-80
2023/06/15 11:07:41;;;;;;;3.25;2.92;;;;;;;24.81;30.14;96729.84;4912247;29;20055;-79
2023/06/15 11:10:14;;;;;;;4.78;2.70;;;;;;;24.85;30.33;96736.25;4913877;29;20528;-76
2023/06/15 11:12:47;;;;;;;6.55;2.97;;;;;;;24.87;29.88;96734.13;4904965;29;20063;-88
2023/06/15 11:15:17;;;;;;;3.63;2.90;;;;;;;24.87;29.87;96722.66;4905750;29;20428;-91
2023/06/15 11:17:55;;;;;;;4.18;3.00;;;;;;;24.85;29.47;96733.59;4920673;29;20048;-89
2023/06/15 11:21:02;;;;;;;3.38;3.08;;;;;;;24.87;30.31;96728.78;4918920;29;21705;-89
2023/06/15 11:23:32;;;;;;;3.58;3.22;;;;;;;24.93;29.90;96726.91;4913908;29;20505;-90
2023/06/15 11:26:02;;;;;;;2.65;2.45;;;;;;;24.96;29.58;96728.25;4908057;29;20071;-86
2023/06/15 11:28:34;;;;;;;4.20;2.95;;;;;;;24.98;29.70;96716.22;4902454;29;20081;-85
2023/06/15 11:31:13;;;;;;;2.80;2.53;;;;;;;25.06;29.65;96722.88;4901541;29;20056;-86
2023/06/15 11:33:43;;;;;;;2.42;2.22;;;;;;;25.13;29.81;96714.59;4901508;29;20116;-88
2023/06/15 11:36:12;;;;;;;2.92;2.60;;;;;;;25.18;29.00;96711.88;4919640;29;20549;-88
2023/06/15 11:38:44;;;;;;;4.10;2.70;;;;;;;25.18;28.72;96715.34;4921186;29;20059;-88
2023/06/15 11:41:13;;;;;;;3.13;2.83;;;;;;;25.17;29.21;96726.31;4916673;29;20044;-88
2023/06/15 11:43:42;;;;;;;2.85;2.65;;;;;;;25.11;28.84;96727.41;4911172;29;20107;-88
2023/06/15 11:46:12;;;;;;;3.95;2.65;;;;;;;24.98;28.87;96715.44;4902851;29;20052;-86
2023/06/15 11:48:40;;;;;;;3.10;2.80;;;;;;;24.88;28.87;96716.25;4902352;29;20049;-87
2023/06/15 11:51:10;;;;;;;3.42;2.67;;;;;;;24.76;29.02;96721.09;4902355;29;20087;-84
2023/06/15 11:53:39;;;;;;;3.72;2.40;;;;;;;24.70;29.80;96722.16;4902885;29;20121;-86
2023/06/15 11:56:09;;;;;;;4.38;2.55;;;;;;;24.68;29.41;96720.53;4914579;29;20580;-90
2023/06/15 11:58:39;;;;;;;2.72;2.42;;;;;;;24.67;29.24;96713.63;4905990;29;20048;-86
2023/06/15 12:01:07;;;;;;;3.05;2.78;;;;;;;24.72;29.71;96714.69;4910460;29;20070;-88
2023/06/15 12:03:40;;;;;;;2.72;2.53;;;;;;;24.78;29.51;96716.28;4922649;29;20075;-90
2023/06/15 12:06:27;;;;;;;3.85;3.10;;;;;;;24.85;29.18;96716.78;4922542;29;20078;-89
2023/06/15 12:08:56;;;;;;;3.90;3.05;;;;;;;24.89;29.31;96715.19;4922938;29;20056;-90
2023/06/15 12:11:25;;;;;;;3.63;2.58;;;;;;;24.94;28.50;96723.16;4911181;29;20090;-90
2023/06/15 12:14:00;;;;;;;4.60;2.40;;;;;;;24.95;28.31;96719.44;4902771;29;20076;-89
2023/06/15 12:16:29;;;;;;;4.63;3.08;;;;;;;24.97;29.25;96717.31;4914984;29;20054;-90
2023/06/15 12:18:59;;;;;;;2.60;2.40;;;;;;;25.05;28.81;96718.59;4924549;29;20119;-90
2023/06/15 12:21:30;;;;;;;;;;;;;;;25.09;28.32;96717.78;4923324;29;20523;-88